Flight Track Log - Related Links

Times and Time Zones

All times are in EDT time to prevent confusion due to time zone crossing. See the FLG4159 flight status page for this flight to view local times or setup timezone preferences in your user account.

Time Position Orientation Groundspeed Altitude Reporting Facility
EDT Latitude Longitude Course Direction KTS MPH feet Rate Location/Type
Sun 06:56:00 AM 43.3800 -83.9938 158° South  Level Estimated
Sun 06:57:00 AM 43.3279 -83.9691 161° South  Level FlightAware Approximate
Sun 06:58:00 AM 43.2759 -83.9446 161° South  Level FlightAware Approximate
Sun 06:59:00 AM 43.2023 -83.9030 161° South  Level Estimated
Sun 07:00:00 AM 43.1270 -83.8681 161° South  Level FlightAware Approximate
Sun 07:01:00 AM 43.0516 -83.8334 161° South  Level FlightAware Approximate
Sun 07:01:49 AM 42.9958 -83.8306 159° South 263 303 6,000  Level Cleveland Center
Sun 07:02:00 AM 42.9763 -83.7988 161° South  Level FlightAware Approximate
Sun 07:02:19 AM 42.9589 -83.8117 159° South 262 302 6,000  Level Cleveland Center
Sun 07:03:00 AM 42.9009 -83.7642 161° South  Level FlightAware Approximate
Sun 07:03:20 AM 42.8933 -83.7714 156° South 260 299 6,000  Level Cleveland Center
Sun 07:04:00 AM 42.8282 -83.7204 160° South  Level Estimated
Sun 07:04:32 AM 42.8092 -83.7219 157° South 260 299 6,000  Level Cleveland Center
Sun 07:05:00 AM 42.7554 -83.6766 152° Southeast  Level Estimated
Sun 07:05:33 AM 42.7456 -83.6847 157° South 263 303 6,000  Level Cleveland Center
Sun 07:06:00 AM 42.6827 -83.6329 159° South  Level Estimated
Sun 07:06:22 AM 42.6947 -83.6456 150° Southeast 269 310 6,000  Level Cleveland Center
Sun 07:07:00 AM 42.6192 -83.5990 159° South  Level FlightAware Approximate
Sun 07:07:23 AM 42.6425 -83.5639 131° Southeast 271 312 6,000  Level Cleveland Center
Sun 07:08:23 AM 42.5858 -83.4936 138° Southeast 270 311 6,000  Level Cleveland Center
Sun 07:09:30 AM 42.5253 -83.4231 139° Southeast 270 311 6,000 -375 Level Cleveland Center
Sun 07:10:31 AM 42.4661 -83.3642 144° Southeast 261 300 5,200 -1,034 Descending Cleveland Center
Sun 07:11:26 AM 42.4153 -83.3086 141° Southeast 247 284 4,000 -879 Descending Cleveland Center
Sun 07:12:27 AM 42.3531 -83.3031 176° South 204 235 3,500 -492 Descending Cleveland Center

Login

Don't have an account? Register now (free) for customized features, flight alerts, and more!